Time;durP1;ratioP1;P1;durP2;ratioP2;P2;SDS_P1;SDS_P2;PMS_P1;PMS_P2;Temp;Humidity;BMP_temperature;BMP_pressure;BME280_temperature;BME280_humidity;BME280_pressure;Samples;Min_cycle;Max_cycle;Signal;HPM_P1;HPM_P2
2023/12/30 00:00:17;;;;;;;6.10;1.13;;;9.00;99.90;;;;;;4948451;28;20055;-89
2023/12/30 00:02:43;;;;;;;8.30;1.02;;;8.90;99.90;;;;;;4950540;28;20027;-91
2023/12/30 00:05:08;;;;;;;5.25;1.20;;;9.10;99.90;;;;;;4946046;29;20100;-88
2023/12/30 00:07:34;;;;;;;2.88;0.70;;;9.00;99.90;;;;;;4946210;28;20066;-90
2023/12/30 00:10:01;;;;;;;4.47;1.10;;;9.10;99.90;;;;;;4943820;28;20043;-89
2023/12/30 00:12:27;;;;;;;4.18;1.00;;;9.00;99.90;;;;;;4928639;28;20391;-89
2023/12/30 00:14:53;;;;;;;2.03;0.70;;;9.00;99.90;;;;;;4944656;28;20686;-90
2023/12/30 00:17:19;;;;;;;6.22;1.30;;;9.00;99.90;;;;;;4945051;28;20035;-90
2023/12/30 00:19:46;;;;;;;3.03;0.60;;;9.10;99.90;;;;;;4946128;28;20066;-91
2023/12/30 00:22:12;;;;;;;4.78;0.93;;;9.10;99.90;;;;;;4945690;29;20243;-88
2023/12/30 00:24:42;;;;;;;3.03;0.47;;;9.10;99.90;;;;;;4939906;28;20040;-92
2023/12/30 00:27:08;;;;;;;3.60;0.52;;;9.10;99.90;;;;;;4946832;28;20114;-91
2023/12/30 00:29:45;;;;;;;5.00;0.55;;;9.00;99.90;;;;;;4946124;28;20130;-90
2023/12/30 00:32:11;;;;;;;1.75;0.40;;;9.00;99.90;;;;;;4945820;29;20035;-89
2023/12/30 00:34:36;;;;;;;1.25;0.50;;;9.00;99.90;;;;;;4945796;28;20110;-91
2023/12/30 00:37:02;;;;;;;3.38;0.50;;;9.00;99.90;;;;;;4946368;28;20114;-90
2023/12/30 00:39:27;;;;;;;1.33;0.40;;;8.90;99.90;;;;;;4945350;28;20027;-89
2023/12/30 00:41:53;;;;;;;3.05;0.68;;;8.90;99.90;;;;;;4943853;29;20041;-90
2023/12/30 00:44:19;;;;;;;3.63;0.60;;;9.00;99.90;;;;;;4939440;28;20166;-89
2023/12/30 00:46:44;;;;;;;1.50;0.60;;;8.90;99.90;;;;;;4944710;28;20058;-92
2023/12/30 00:49:11;;;;;;;2.53;0.45;;;8.90;99.90;;;;;;4942163;28;20084;-90
2023/12/30 00:51:37;;;;;;;4.57;0.63;;;8.90;99.90;;;;;;4942643;28;20085;-87
2023/12/30 00:54:02;;;;;;;1.52;0.57;;;8.80;99.90;;;;;;4938880;28;20031;-90
2023/12/30 00:56:28;;;;;;;4.68;0.73;;;8.80;99.90;;;;;;4941991;28;20544;-90
2023/12/30 00:58:54;;;;;;;1.77;0.43;;;8.80;99.90;;;;;;4945934;28;20051;-90
2023/12/30 01:01:19;;;;;;;2.92;0.40;;;8.70;99.90;;;;;;4949337;28;20055;-90
2023/12/30 01:03:45;;;;;;;3.25;0.50;;;8.70;99.90;;;;;;4949100;28;20055;-88
2023/12/30 01:06:10;;;;;;;2.80;0.40;;;8.70;99.90;;;;;;4954296;28;20026;-86
2023/12/30 01:08:38;;;;;;;3.95;0.60;;;8.70;99.90;;;;;;4963670;28;20045;-91
2023/12/30 01:11:03;;;;;;;1.60;0.30;;;8.70;99.90;;;;;;4965113;28;20074;-91
2023/12/30 01:13:32;;;;;;;2.00;0.35;;;8.70;99.90;;;;;;4952036;28;20495;-92
2023/12/30 01:15:57;;;;;;;1.27;0.20;;;8.60;99.90;;;;;;4931574;28;20089;-89
2023/12/30 01:18:24;;;;;;;0.85;0.28;;;8.70;99.90;;;;;;4950012;28;20031;-88
2023/12/30 01:20:50;;;;;;;1.42;0.32;;;8.60;99.90;;;;;;4949660;28;20023;-91
2023/12/30 01:23:16;;;;;;;1.65;0.35;;;8.70;99.90;;;;;;4950195;28;20070;-90
2023/12/30 01:25:44;;;;;;;1.48;0.30;;;8.50;99.90;;;;;;4949304;28;20027;-91
2023/12/30 01:28:11;;;;;;;2.15;0.40;;;8.60;99.90;;;;;;4954788;28;20047;-89
2023/12/30 01:30:37;;;;;;;0.63;0.28;;;8.50;99.90;;;;;;4948891;28;20027;-90
2023/12/30 01:33:03;;;;;;;4.65;0.57;;;8.50;99.90;;;;;;4948662;29;20039;-91
2023/12/30 01:35:29;;;;;;;0.82;0.40;;;8.50;99.90;;;;;;4948457;28;20026;-88
2023/12/30 01:37:54;;;;;;;3.17;0.28;;;8.40;99.90;;;;;;4941471;28;20023;-88
2023/12/30 01:40:20;;;;;;;1.65;0.60;;;8.40;99.90;;;;;;4960551;28;20061;-89
2023/12/30 01:42:46;;;;;;;0.90;0.40;;;8.40;99.90;;;;;;4964856;28;20122;-89
2023/12/30 01:45:12;;;;;;;3.72;0.70;;;8.50;99.90;;;;;;4947498;28;20031;-91
2023/12/30 01:47:38;;;;;;;0.22;0.15;;;8.30;99.90;;;;;;4947771;28;20051;-92
2023/12/30 01:50:05;;;;;;;1.35;0.40;;;8.40;99.90;;;;;;4944414;28;20038;-93
2023/12/30 01:52:34;;;;;;;1.40;0.40;;;8.30;99.90;;;;;;4949123;28;20027;-90
2023/12/30 01:55:01;;;;;;;5.30;0.35;;;8.30;99.90;;;;;;4948816;28;20032;-90
2023/12/30 01:57:27;;;;;;;1.45;0.30;;;8.30;99.90;;;;;;4948816;28;20027;-91
2023/12/30 01:59:55;;;;;;;10.38;1.10;;;8.20;99.90;;;;;;4948415;28;20039;-90
2023/12/30 02:02:22;;;;;;;1.00;0.40;;;8.30;99.90;;;;;;4950936;28;20027;-90
2023/12/30 02:04:48;;;;;;;2.40;0.55;;;8.20;99.90;;;;;;4947724;28;20027;-89
2023/12/30 02:07:14;;;;;;;1.00;0.22;;;8.20;99.90;;;;;;4933129;28;20061;-90
2023/12/30 02:09:39;;;;;;;0.95;0.25;;;8.30;99.90;;;;;;4947420;28;20086;-89
2023/12/30 02:12:08;;;;;;;4.07;0.52;;;8.20;99.90;;;;;;4947731;28;20050;-90
2023/12/30 02:14:34;;;;;;;3.42;0.50;;;8.20;99.90;;;;;;4947681;28;20042;-90
2023/12/30 02:16:59;;;;;;;3.38;0.70;;;8.20;99.90;;;;;;4950145;28;20027;-90
2023/12/30 02:19:25;;;;;;;2.85;0.25;;;8.30;99.90;;;;;;4947433;28;20613;-90
2023/12/30 02:21:51;;;;;;;3.13;0.55;;;8.20;99.90;;;;;;4972822;28;21491;-88
2023/12/30 02:24:19;;;;;;;3.13;0.45;;;8.20;99.90;;;;;;4943324;28;20054;-90
2023/12/30 02:26:45;;;;;;;4.13;0.40;;;8.20;99.90;;;;;;4945991;28;20124;-89
2023/12/30 02:29:13;;;;;;;1.60;0.47;;;8.20;99.90;;;;;;4945292;28;20488;-89
2023/12/30 02:31:45;;;;;;;2.80;0.40;;;8.20;99.90;;;;;;4947379;28;20092;-89
2023/12/30 02:34:18;;;;;;;2.63;0.40;;;8.20;99.90;;;;;;4931649;28;20035;-89
2023/12/30 02:36:48;;;;;;;3.10;0.60;;;8.10;99.90;;;;;;4946477;29;20031;-91
2023/12/30 02:39:16;;;;;;;7.43;0.70;;;8.10;99.90;;;;;;4944044;28;20054;-88
2023/12/30 02:41:45;;;;;;;2.63;0.55;;;8.10;99.90;;;;;;4947612;28;20027;-89
2023/12/30 02:44:11;;;;;;;6.38;0.80;;;8.10;99.90;;;;;;4945157;28;20039;-90
2023/12/30 02:46:36;;;;;;;5.75;1.05;;;8.10;99.90;;;;;;4941958;28;20035;-87
2023/12/30 02:49:03;;;;;;;3.83;0.50;;;8.10;99.90;;;;;;4940670;28;20066;-89
2023/12/30 02:51:29;;;;;;;5.25;0.68;;;8.10;99.90;;;;;;4940495;28;20406;-88
2023/12/30 02:53:55;;;;;;;2.10;0.40;;;8.10;99.90;;;;;;4927333;28;20086;-89
2023/12/30 02:56:26;;;;;;;2.08;0.57;;;8.20;99.90;;;;;;4930169;28;20027;-90
2023/12/30 02:59:00;;;;;;;4.20;0.77;;;8.10;99.90;;;;;;4929947;29;20122;-89
2023/12/30 03:01:27;;;;;;;1.00;0.20;;;8.10;99.90;;;;;;4951117;28;20034;-89
2023/12/30 03:03:57;;;;;;;4.47;0.70;;;8.10;99.90;;;;;;4945943;28;20031;-89
2023/12/30 03:06:23;;;;;;;4.63;1.42;;;8.10;99.90;;;;;;4946126;28;20027;-89
2023/12/30 03:08:49;;;;;;;3.58;0.52;;;8.10;99.90;;;;;;4945865;29;20027;-88
2023/12/30 03:11:15;;;;;;;7.13;1.08;;;8.10;99.90;;;;;;4945460;29;20122;-89
2023/12/30 03:13:41;;;;;;;5.72;0.60;;;8.00;99.90;;;;;;4946731;28;20035;-90
2023/12/30 03:16:07;;;;;;;5.53;0.75;;;8.00;99.90;;;;;;4942035;28;20122;-90
2023/12/30 03:18:33;;;;;;;8.82;1.10;;;8.00;99.90;;;;;;4945771;28;20039;-88
2023/12/30 03:21:00;;;;;;;3.97;0.50;;;8.10;99.90;;;;;;4943091;29;20031;-89
2023/12/30 03:23:26;;;;;;;5.93;1.13;;;8.00;99.90;;;;;;4946025;28;20088;-89
2023/12/30 03:25:51;;;;;;;5.50;0.77;;;8.10;99.90;;;;;;4943702;28;20281;-90
2023/12/30 03:28:17;;;;;;;3.88;0.90;;;7.90;99.90;;;;;;4926861;29;20047;-90
2023/12/30 03:30:43;;;;;;;4.85;0.68;;;7.90;99.90;;;;;;4949278;28;20620;-86
2023/12/30 03:33:10;;;;;;;14.10;1.30;;;8.00;99.90;;;;;;4969669;28;20058;-88
2023/12/30 03:35:37;;;;;;;0.88;0.55;;;8.00;99.90;;;;;;4959585;28;20034;-89
2023/12/30 03:38:03;;;;;;;3.15;0.50;;;8.00;99.90;;;;;;4958501;28;20035;-89
2023/12/30 03:40:28;;;;;;;9.07;1.17;;;7.90;99.90;;;;;;4948398;28;20020;-90
2023/12/30 03:42:54;;;;;;;5.85;0.63;;;7.90;99.90;;;;;;4970239;28;20960;-88
2023/12/30 03:45:19;;;;;;;1.98;0.52;;;7.90;99.90;;;;;;4927999;28;20024;-90
2023/12/30 03:47:47;;;;;;;4.85;0.65;;;7.80;99.90;;;;;;4945513;28;20710;-88
2023/12/30 03:50:13;;;;;;;2.63;0.52;;;7.90;99.90;;;;;;4946080;29;20027;-89
2023/12/30 03:52:41;;;;;;;8.20;1.38;;;7.80;99.90;;;;;;4948847;28;20035;-90
2023/12/30 03:55:07;;;;;;;6.05;0.50;;;7.80;99.90;;;;;;4928170;28;20062;-89
2023/12/30 03:57:33;;;;;;;4.55;1.05;;;7.80;99.90;;;;;;4948310;28;20506;-88
2023/12/30 03:59:58;;;;;;;5.95;0.80;;;7.90;99.90;;;;;;4946197;28;20062;-89
2023/12/30 04:02:24;;;;;;;8.05;1.02;;;7.90;99.90;;;;;;4945424;28;20019;-88
2023/12/30 04:04:49;;;;;;;6.88;0.95;;;7.70;99.90;;;;;;4944514;28;20101;-87
2023/12/30 04:07:15;;;;;;;8.27;0.93;;;7.80;99.90;;;;;;4955222;28;20050;-88
2023/12/30 04:09:41;;;;;;;6.55;1.00;;;7.70;99.90;;;;;;4940841;28;20039;-89
2023/12/30 04:12:06;;;;;;;4.75;0.77;;;7.70;99.90;;;;;;4941244;29;20039;-88
2023/12/30 04:14:32;;;;;;;7.70;0.75;;;7.70;99.90;;;;;;4941265;28;20059;-90
2023/12/30 04:16:58;;;;;;;9.63;0.88;;;7.70;99.90;;;;;;4948113;28;20114;-90
2023/12/30 04:19:24;;;;;;;3.95;1.00;;;7.70;99.90;;;;;;4929982;28;20028;-89
2023/12/30 04:21:50;;;;;;;5.50;0.75;;;7.80;99.90;;;;;;4943142;28;20035;-90
2023/12/30 04:24:17;;;;;;;4.15;1.00;;;7.70;99.90;;;;;;4943783;28;20084;-88
2023/12/30 04:26:43;;;;;;;5.50;1.08;;;7.70;99.90;;;;;;4941080;28;20182;-88
2023/12/30 04:29:12;;;;;;;8.02;1.67;;;7.70;99.90;;;;;;4956215;28;20508;-90
2023/12/30 04:31:37;;;;;;;3.00;0.88;;;7.70;99.90;;;;;;4945291;28;20660;-90
2023/12/30 04:34:04;;;;;;;1.45;0.80;;;7.70;99.90;;;;;;4944649;28;20022;-89
2023/12/30 04:36:32;;;;;;;4.30;0.93;;;7.70;99.90;;;;;;4946183;28;20089;-91
2023/12/30 04:38:57;;;;;;;;;;;7.60;99.90;;;;;;4945578;28;20095;-90
2023/12/30 04:41:23;;;;;;;1.50;0.70;;;7.60;99.90;;;;;;4944481;28;19997;-90
2023/12/30 04:43:51;;;;;;;6.13;0.80;;;7.80;99.90;;;;;;4943507;28;20027;-90
2023/12/30 04:46:17;;;;;;;6.43;0.93;;;7.70;99.90;;;;;;4947234;28;20222;-88
2023/12/30 04:48:42;;;;;;;3.90;0.88;;;7.70;99.90;;;;;;4939287;28;20746;-90
2023/12/30 04:51:09;;;;;;;4.22;0.90;;;7.60;99.90;;;;;;4945490;28;20019;-90
2023/12/30 04:53:35;;;;;;;9.45;0.85;;;7.70;99.90;;;;;;4944138;28;20023;-90
2023/12/30 04:56:02;;;;;;;4.03;0.85;;;7.70;99.90;;;;;;4943549;28;20023;-89
2023/12/30 04:58:28;;;;;;;3.03;0.60;;;7.70;99.90;;;;;;4945460;28;20019;-90
2023/12/30 05:00:54;;;;;;;7.20;1.13;;;7.70;99.90;;;;;;4953146;28;20126;-90
2023/12/30 05:03:20;;;;;;;6.68;1.17;;;7.70;99.90;;;;;;4957725;28;20026;-89
2023/12/30 05:05:51;;;;;;;2.30;0.70;;;7.70;99.90;;;;;;4971085;28;20615;-90
2023/12/30 05:08:16;;;;;;;4.18;1.08;;;7.70;99.90;;;;;;4943616;29;20520;-89
2023/12/30 05:10:42;;;;;;;5.93;0.75;;;7.60;99.90;;;;;;4946040;28;20122;-89
2023/12/30 05:13:09;;;;;;;6.03;1.13;;;7.60;99.90;;;;;;4943987;28;20026;-87
2023/12/30 05:15:34;;;;;;;10.05;1.33;;;7.70;99.90;;;;;;4940189;29;20039;-88
2023/12/30 05:18:04;;;;;;;6.63;1.02;;;7.60;99.90;;;;;;4942505;28;20019;-89
2023/12/30 05:20:29;;;;;;;8.93;1.05;;;7.60;99.90;;;;;;4944962;28;20031;-90
2023/12/30 05:22:59;;;;;;;6.85;0.77;;;7.70;99.90;;;;;;4928360;28;20043;-90
2023/12/30 05:25:25;;;;;;;4.35;0.90;;;7.60;99.90;;;;;;4941500;28;20035;-90
2023/12/30 05:27:53;;;;;;;8.45;1.20;;;7.60;99.90;;;;;;4944099;28;20088;-91
2023/12/30 05:30:18;;;;;;;13.57;1.30;;;7.60;99.90;;;;;;4941828;28;20023;-88
2023/12/30 05:32:44;;;;;;;9.63;1.40;;;7.60;99.90;;;;;;4942788;28;20074;-87
2023/12/30 05:35:10;;;;;;;9.38;1.30;;;7.70;99.90;;;;;;4944486;29;20032;-90
2023/12/30 05:37:38;;;;;;;4.72;0.75;;;7.70;99.90;;;;;;4944246;29;20569;-90
2023/12/30 05:40:08;;;;;;;9.07;0.95;;;7.60;99.90;;;;;;4945219;28;20024;-89
2023/12/30 05:42:34;;;;;;;9.32;1.00;;;7.70;99.90;;;;;;4944386;28;20051;-86
2023/12/30 05:45:00;;;;;;;10.07;1.55;;;7.80;99.90;;;;;;4947347;28;20033;-88
2023/12/30 05:47:27;;;;;;;10.10;1.00;;;7.70;99.90;;;;;;4945439;28;20038;-90
2023/12/30 05:49:53;;;;;;;7.28;1.63;;;7.70;99.90;;;;;;4947528;29;20070;-89
2023/12/30 05:52:18;;;;;;;10.60;1.75;;;7.80;99.90;;;;;;4947109;28;20063;-90
2023/12/30 05:54:45;;;;;;;6.28;1.10;;;7.80;99.90;;;;;;4946681;28;20035;-88
2023/12/30 05:57:11;;;;;;;3.60;1.20;;;7.80;99.90;;;;;;4931367;29;20034;-89
2023/12/30 05:59:36;;;;;;;12.15;1.33;;;7.80;99.90;;;;;;4945607;28;20032;-88
2023/12/30 06:02:02;;;;;;;11.25;1.45;;;7.90;99.90;;;;;;4943635;28;20070;-89
2023/12/30 06:04:28;;;;;;;4.90;1.15;;;7.90;99.90;;;;;;4946831;28;20037;-89
2023/12/30 06:06:55;;;;;;;7.40;1.60;;;7.90;99.90;;;;;;4942177;29;20092;-89
2023/12/30 06:09:26;;;;;;;6.78;1.05;;;8.00;99.90;;;;;;4948475;28;20027;-90
2023/12/30 06:11:51;;;;;;;12.70;1.63;;;8.00;99.90;;;;;;4947128;29;20031;-88
2023/12/30 06:14:17;;;;;;;7.63;1.77;;;8.00;99.90;;;;;;4942289;28;20555;-88
2023/12/30 06:16:47;;;;;;;6.90;1.90;;;8.00;99.90;;;;;;4961814;28;20046;-89
2023/12/30 06:19:13;;;;;;;5.60;1.17;;;8.00;99.90;;;;;;4946966;28;20026;-90
2023/12/30 06:21:39;;;;;;;8.27;2.08;;;8.00;99.90;;;;;;4928753;28;20032;-90
2023/12/30 06:24:05;;;;;;;11.18;2.10;;;8.00;99.90;;;;;;4948536;28;20061;-89
2023/12/30 06:26:35;;;;;;;15.50;2.10;;;7.90;99.90;;;;;;4943944;29;20024;-90
2023/12/30 06:29:01;;;;;;;7.07;1.80;;;8.00;99.90;;;;;;4945870;29;20122;-90
2023/12/30 06:31:26;;;;;;;12.68;1.95;;;7.90;99.90;;;;;;4958195;28;20577;-89
2023/12/30 06:33:52;;;;;;;16.52;2.45;;;7.90;99.90;;;;;;4946388;28;20039;-90
2023/12/30 06:36:23;;;;;;;11.68;2.08;;;7.90;99.90;;;;;;4961237;28;20027;-88
2023/12/30 06:38:49;;;;;;;5.82;1.42;;;8.00;99.90;;;;;;4945376;28;20027;-89
2023/12/30 06:41:18;;;;;;;7.32;1.67;;;7.80;99.90;;;;;;4944372;28;20039;-88
2023/12/30 06:43:44;;;;;;;6.93;1.42;;;7.80;99.90;;;;;;4928996;28;20059;-91
2023/12/30 06:46:10;;;;;;;9.52;1.27;;;7.90;99.90;;;;;;4946638;28;20035;-91
2023/12/30 06:48:35;;;;;;;6.65;1.63;;;7.80;99.90;;;;;;4945754;28;20089;-91
2023/12/30 06:51:02;;;;;;;9.85;1.80;;;7.80;99.90;;;;;;4931567;29;20035;-92
2023/12/30 06:53:31;;;;;;;7.95;1.73;;;7.90;99.90;;;;;;4946230;28;20023;-91
2023/12/30 06:56:01;;;;;;;11.60;1.95;;;7.80;99.90;;;;;;4939278;28;20792;-89
2023/12/30 06:58:29;;;;;;;15.60;2.08;;;7.80;99.90;;;;;;4934437;29;20042;-90
2023/12/30 07:00:55;;;;;;;;;;;7.80;99.90;;;;;;4949977;28;20219;-91
2023/12/30 07:03:20;;;;;;;15.48;2.03;;;7.80;99.90;;;;;;4949667;28;20431;-90
2023/12/30 07:05:46;;;;;;;9.30;1.52;;;7.80;99.90;;;;;;4951034;28;20039;-88
2023/12/30 07:08:12;;;;;;;12.38;1.65;;;7.80;99.90;;;;;;4946705;28;20540;-89
2023/12/30 07:10:38;;;;;;;10.95;1.50;;;7.80;99.90;;;;;;4958552;28;20133;-90
2023/12/30 07:13:05;;;;;;;9.52;1.85;;;7.80;99.90;;;;;;4940929;29;20042;-88
2023/12/30 07:15:30;;;;;;;9.55;2.50;;;7.80;99.90;;;;;;4942491;29;20023;-90
2023/12/30 07:17:56;;;;;;;7.45;1.63;;;7.90;99.90;;;;;;4945471;28;20023;-90
2023/12/30 07:20:22;;;;;;;6.47;1.65;;;7.90;99.90;;;;;;4949909;28;20031;-91
2023/12/30 07:22:47;;;;;;;13.43;2.20;;;7.90;99.90;;;;;;4961307;28;20031;-90
2023/12/30 07:25:13;;;;;;;12.05;2.15;;;7.90;99.90;;;;;;4941314;28;20038;-88
2023/12/30 07:27:41;;;;;;;9.77;2.03;;;7.80;99.90;;;;;;4946382;28;20551;-87
2023/12/30 07:30:07;;;;;;;;;;;7.80;99.90;;;;;;4952453;28;20700;-87
2023/12/30 07:32:33;;;;;;;6.00;1.58;;;7.80;99.90;;;;;;4935208;28;19929;-87
2023/12/30 07:34:59;;;;;;;7.18;1.70;;;7.80;99.90;;;;;;4947700;29;20486;-90
2023/12/30 07:37:25;;;;;;;13.68;2.83;;;7.90;99.90;;;;;;4932342;29;20027;-91
2023/12/30 07:39:52;;;;;;;4.93;1.55;;;7.90;99.90;;;;;;4948132;28;20027;-90
2023/12/30 07:42:17;;;;;;;13.30;2.13;;;7.80;99.90;;;;;;4946673;28;20130;-90
2023/12/30 07:44:43;;;;;;;10.25;1.90;;;7.80;99.90;;;;;;4945856;28;20164;-89
2023/12/30 07:47:11;;;;;;;12.52;1.65;;;7.80;99.90;;;;;;4944403;28;20042;-89
2023/12/30 07:49:36;;;;;;;10.23;2.20;;;7.90;99.90;;;;;;4951307;28;20027;-89
2023/12/30 07:52:02;;;;;;;12.02;2.22;;;7.90;99.90;;;;;;4959491;28;20497;-90
2023/12/30 07:54:29;;;;;;;11.27;2.50;;;7.90;99.90;;;;;;4950524;28;20111;-89
2023/12/30 07:56:56;;;;;;;12.50;1.70;;;7.90;99.90;;;;;;4946090;28;20114;-90
2023/12/30 07:59:22;;;;;;;15.20;1.92;;;7.90;99.90;;;;;;4949656;28;20533;-88
2023/12/30 08:01:48;;;;;;;7.30;1.70;;;7.90;99.90;;;;;;4947411;28;20122;-88
2023/12/30 08:04:15;;;;;;;5.57;1.85;;;7.90;99.90;;;;;;4944954;28;20036;-89
2023/12/30 08:06:40;;;;;;;18.48;2.63;;;7.90;99.90;;;;;;4960013;28;20115;-90
2023/12/30 08:09:07;;;;;;;12.23;1.83;;;8.10;99.90;;;;;;4943654;28;20538;-87
2023/12/30 08:11:35;;;;;;;9.65;1.88;;;8.00;99.90;;;;;;4935228;28;20035;-87
2023/12/30 08:14:01;;;;;;;11.55;1.60;;;7.90;99.90;;;;;;4937474;28;20023;-89
2023/12/30 08:16:29;;;;;;;7.38;1.80;;;8.00;99.90;;;;;;4943099;28;20038;-89
2023/12/30 08:18:55;;;;;;;11.63;1.60;;;8.00;99.90;;;;;;4925349;28;20049;-88
2023/12/30 08:21:23;;;;;;;16.92;1.73;;;8.00;99.90;;;;;;4940962;28;20027;-88
2023/12/30 08:23:52;;;;;;;8.50;2.03;;;8.00;99.90;;;;;;4925561;28;20040;-88
2023/12/30 08:26:18;;;;;;;11.45;2.00;;;8.00;99.90;;;;;;4936827;28;20040;-87
2023/12/30 08:28:45;;;;;;;11.23;2.25;;;8.10;99.90;;;;;;4941127;28;20169;-89
2023/12/30 08:31:11;;;;;;;16.27;2.30;;;8.10;99.90;;;;;;4937476;28;20446;-89
2023/12/30 08:33:36;;;;;;;12.05;2.17;;;8.10;99.90;;;;;;4941160;28;20038;-89
2023/12/30 08:36:02;;;;;;;8.68;1.58;;;8.10;99.90;;;;;;4943433;28;20038;-88
2023/12/30 08:38:31;;;;;;;11.85;1.88;;;8.10;99.90;;;;;;4945755;28;20577;-88
2023/12/30 08:40:57;;;;;;;8.05;2.10;;;8.20;99.90;;;;;;4947061;28;20035;-88
2023/12/30 08:43:23;;;;;;;10.15;1.85;;;8.20;99.90;;;;;;4946204;28;20035;-90
2023/12/30 08:45:48;;;;;;;13.88;2.28;;;8.30;99.90;;;;;;4946881;28;20035;-89
2023/12/30 08:48:14;;;;;;;7.57;1.85;;;8.20;99.90;;;;;;4944385;28;20106;-88
2023/12/30 08:50:41;;;;;;;13.35;2.75;;;8.40;99.90;;;;;;4942337;28;22845;-88
2023/12/30 08:53:07;;;;;;;7.15;2.08;;;8.20;99.90;;;;;;4942688;28;20122;-89
2023/12/30 08:55:32;;;;;;;9.65;2.20;;;8.20;99.90;;;;;;4946534;28;20114;-89
2023/12/30 08:57:58;;;;;;;10.07;2.70;;;8.30;99.90;;;;;;4964995;28;20031;-90
2023/12/30 09:00:24;;;;;;;19.45;2.17;;;8.30;99.90;;;;;;4941067;28;20043;-90
2023/12/30 09:02:55;;;;;;;13.68;1.63;;;8.30;99.90;;;;;;4939648;28;20098;-88
2023/12/30 09:05:21;;;;;;;4.95;1.70;;;8.30;99.90;;;;;;4942860;28;20070;-85
2023/12/30 09:07:51;;;;;;;6.13;1.77;;;8.30;99.90;;;;;;4941001;28;20043;-90
2023/12/30 09:10:17;;;;;;;12.25;2.10;;;8.30;99.90;;;;;;4947100;28;20578;-89
2023/12/30 09:12:44;;;;;;;12.70;1.75;;;8.50;99.90;;;;;;4958863;28;20051;-87
2023/12/30 09:15:10;;;;;;;7.47;1.58;;;8.40;99.90;;;;;;4938647;28;20039;-89
2023/12/30 09:17:36;;;;;;;10.45;1.70;;;8.40;99.90;;;;;;4942049;28;20043;-88
2023/12/30 09:20:01;;;;;;;10.95;2.10;;;8.40;99.90;;;;;;4939221;28;20075;-89
2023/12/30 09:22:27;;;;;;;8.90;1.80;;;8.50;99.90;;;;;;4940586;28;20042;-89
2023/12/30 09:24:58;;;;;;;16.75;2.03;;;8.50;99.90;;;;;;4942337;28;20027;-88
2023/12/30 09:27:24;;;;;;;7.22;1.60;;;8.50;99.90;;;;;;4936986;28;20035;-87
2023/12/30 09:29:53;;;;;;;13.05;2.45;;;8.50;99.90;;;;;;4950850;28;20438;-87
2023/12/30 09:32:19;;;;;;;8.93;2.03;;;8.50;99.90;;;;;;4960267;28;20042;-89
2023/12/30 09:34:44;;;;;;;15.23;2.22;;;8.60;99.90;;;;;;4930349;28;20035;-88
2023/12/30 09:37:11;;;;;;;15.80;2.35;;;8.60;99.90;;;;;;4949371;28;20548;-89
2023/12/30 09:39:37;;;;;;;9.65;1.83;;;8.60;99.90;;;;;;4948963;28;20031;-86
2023/12/30 09:42:04;;;;;;;12.57;1.75;;;8.60;99.90;;;;;;4945215;28;20715;-91
2023/12/30 09:44:32;;;;;;;10.80;2.00;;;8.60;99.90;;;;;;4947520;28;20111;-87
2023/12/30 09:46:59;;;;;;;12.25;2.38;;;8.60;99.90;;;;;;4953191;28;20161;-87
2023/12/30 09:49:25;;;;;;;10.95;2.05;;;8.60;99.90;;;;;;4968246;28;20066;-87
2023/12/30 09:51:50;;;;;;;8.35;2.00;;;8.60;99.90;;;;;;4959986;28;20036;-89
2023/12/30 09:54:16;;;;;;;8.05;1.90;;;8.70;99.90;;;;;;4946239;28;20085;-89
2023/12/30 09:56:42;;;;;;;11.82;2.22;;;8.70;99.90;;;;;;4945838;28;20102;-89
2023/12/30 09:59:08;;;;;;;6.78;2.03;;;8.70;99.90;;;;;;4949308;28;20540;-90
2023/12/30 10:01:34;;;;;;;7.80;1.90;;;8.80;99.90;;;;;;4950021;28;20114;-88
2023/12/30 10:04:01;;;;;;;14.18;3.35;;;8.90;99.90;;;;;;4946372;28;20039;-88
2023/12/30 10:06:28;;;;;;;14.97;1.93;;;8.80;99.90;;;;;;4956705;28;20039;-87
2023/12/30 10:08:54;;;;;;;11.10;1.85;;;8.80;99.90;;;;;;4944584;28;20649;-86
2023/12/30 10:11:20;;;;;;;10.35;1.90;;;8.90;99.90;;;;;;4949076;28;20042;-87
2023/12/30 10:13:45;;;;;;;9.27;2.10;;;8.90;99.90;;;;;;4941418;28;20043;-88
2023/12/30 10:16:12;;;;;;;6.93;1.73;;;9.00;99.90;;;;;;4943762;28;20038;-88
2023/12/30 10:18:39;;;;;;;5.70;2.05;;;9.00;99.90;;;;;;4942565;28;20036;-89
2023/12/30 10:21:08;;;;;;;12.93;3.10;;;9.10;99.90;;;;;;4946693;28;20031;-87
2023/12/30 10:23:36;;;;;;;11.45;2.03;;;9.10;99.90;;;;;;4965433;28;20027;-89
2023/12/30 10:26:03;;;;;;;12.88;1.90;;;9.10;99.90;;;;;;4943885;28;20032;-88
2023/12/30 10:28:30;;;;;;;7.13;1.95;;;9.10;99.90;;;;;;4942871;28;20039;-88
2023/12/30 10:31:05;;;;;;;9.13;1.85;;;9.10;99.90;;;;;;4947308;28;20053;-86
2023/12/30 10:33:33;;;;;;;10.52;1.70;;;9.10;99.90;;;;;;4937803;28;20499;-89
2023/12/30 10:35:59;;;;;;;9.70;2.50;;;9.10;99.90;;;;;;4945784;28;20041;-88
2023/12/30 10:38:26;;;;;;;8.77;2.13;;;9.10;99.90;;;;;;4941298;29;20075;-88
2023/12/30 10:40:52;;;;;;;7.18;1.52;;;9.10;99.90;;;;;;4944760;28;20039;-86
2023/12/30 10:43:19;;;;;;;10.95;1.98;;;9.20;99.90;;;;;;4938764;28;20036;-88
2023/12/30 10:46:09;;;;;;;12.77;1.77;;;9.10;99.90;;;;;;4946817;28;20123;-91
2023/12/30 10:48:55;;;;;;;6.28;1.95;;;9.20;99.90;;;;;;4956616;28;21592;-90
2023/12/30 10:51:25;;;;;;;11.93;1.90;;;9.10;99.90;;;;;;4947110;29;20434;-87
2023/12/30 10:54:04;;;;;;;9.07;2.45;;;9.10;99.90;;;;;;4948289;28;20384;-87
2023/12/30 10:56:39;;;;;;;19.83;2.30;;;9.20;99.90;;;;;;4946391;28;20523;-88
2023/12/30 10:59:07;;;;;;;8.27;1.80;;;9.30;99.90;;;;;;4943739;28;20085;-89
2023/12/30 11:01:33;;;;;;;12.60;2.20;;;9.30;99.90;;;;;;4947901;28;20549;-91
2023/12/30 11:04:11;;;;;;;9.75;1.67;;;9.30;99.90;;;;;;4946639;28;20585;-88
2023/12/30 11:06:48;;;;;;;9.10;1.95;;;9.30;99.90;;;;;;4948106;28;20027;-87
2023/12/30 11:09:14;;;;;;;15.90;2.85;;;9.30;99.90;;;;;;4946771;28;20074;-90
2023/12/30 11:11:53;;;;;;;7.60;1.23;;;9.30;99.90;;;;;;4946089;28;20028;-87
2023/12/30 11:14:24;;;;;;;14.68;1.58;;;9.30;99.90;;;;;;4949316;28;20379;-87
2023/12/30 11:16:54;;;;;;;8.02;1.40;;;9.30;99.90;;;;;;4950510;28;20043;-86
2023/12/30 11:19:36;;;;;;;8.38;1.77;;;9.30;99.90;;;;;;4948209;28;20030;-89
2023/12/30 11:22:06;;;;;;;10.82;1.88;;;9.30;99.90;;;;;;4947201;28;20053;-87
2023/12/30 11:24:33;;;;;;;7.57;2.00;;;9.30;99.90;;;;;;4945533;28;20114;-88
2023/12/30 11:26:59;;;;;;;15.20;2.17;;;9.30;99.90;;;;;;4941388;28;20076;-87
2023/12/30 11:29:27;;;;;;;6.43;1.35;;;9.40;99.90;;;;;;4946825;28;20679;-88
2023/12/30 11:31:59;;;;;;;14.32;1.65;;;9.40;99.90;;;;;;4944603;28;20130;-88
2023/12/30 11:34:24;;;;;;;10.00;2.05;;;9.50;99.90;;;;;;4926076;28;20031;-87
2023/12/30 11:36:52;;;;;;;9.82;1.90;;;9.50;99.90;;;;;;4954810;28;20034;-88
2023/12/30 11:39:33;;;;;;;11.10;1.88;;;9.50;99.90;;;;;;4946166;28;20027;-87
2023/12/30 11:42:00;;;;;;;9.30;1.65;;;9.60;99.90;;;;;;4949238;28;20033;-86
2023/12/30 11:44:27;;;;;;;7.25;1.83;;;9.60;99.90;;;;;;4942507;28;20558;-85
2023/12/30 11:46:52;;;;;;;12.05;1.50;;;9.60;99.90;;;;;;4942672;28;20035;-86
2023/12/30 11:49:22;;;;;;;9.80;1.80;;;9.70;99.90;;;;;;4940204;28;20638;-87
2023/12/30 11:51:51;;;;;;;17.45;2.15;;;9.80;99.90;;;;;;4950861;28;20042;-90
2023/12/30 11:54:16;;;;;;;4.78;1.30;;;9.80;99.90;;;;;;4939586;28;20031;-85
2023/12/30 11:56:42;;;;;;;9.45;1.48;;;9.70;99.90;;;;;;4939889;28;20062;-87
2023/12/30 11:59:08;;;;;;;8.63;1.70;;;9.70;99.90;;;;;;4945636;28;20039;-88
2023/12/30 12:01:35;;;;;;;6.25;1.85;;;9.80;99.90;;;;;;4937079;28;20031;-87
2023/12/30 12:04:03;;;;;;;10.00;1.58;;;9.80;99.90;;;;;;4948769;28;20020;-88
2023/12/30 12:06:29;;;;;;;16.40;1.90;;;9.80;99.90;;;;;;4943700;28;20023;-88
2023/12/30 12:08:55;;;;;;;11.05;1.88;;;9.80;99.90;;;;;;4945435;28;20036;-88
2023/12/30 12:11:21;;;;;;;8.38;1.65;;;9.90;99.90;;;;;;4945491;28;20043;-87
2023/12/30 12:13:47;;;;;;;16.27;1.85;;;9.80;99.90;;;;;;4944797;28;20510;-86
2023/12/30 12:16:12;;;;;;;10.57;1.80;;;9.80;99.90;;;;;;4941811;28;20600;-88
2023/12/30 12:18:41;;;;;;;11.65;2.58;;;9.80;99.90;;;;;;4929378;28;20044;-89
2023/12/30 12:21:13;;;;;;;9.15;1.73;;;9.80;99.90;;;;;;4950927;28;20116;-90
2023/12/30 12:23:41;;;;;;;17.83;2.35;;;9.80;99.90;;;;;;4941994;28;20107;-86
2023/12/30 12:26:09;;;;;;;12.70;1.85;;;9.80;99.90;;;;;;4971208;28;20029;-89
2023/12/30 12:28:35;;;;;;;13.32;2.40;;;9.80;99.90;;;;;;4943063;29;20675;-89
2023/12/30 12:31:06;;;;;;;6.10;1.40;;;9.80;99.90;;;;;;4944023;28;20023;-89
2023/12/30 12:33:34;;;;;;;7.95;2.10;;;9.80;99.90;;;;;;4943145;28;20024;-89
2023/12/30 12:36:00;;;;;;;12.85;1.88;;;9.80;99.90;;;;;;4946725;28;20031;-89
2023/12/30 12:38:26;;;;;;;12.90;1.92;;;9.80;99.90;;;;;;4946774;28;20077;-89
2023/12/30 12:40:52;;;;;;;9.90;1.70;;;9.80;99.90;;;;;;4943350;28;20024;-90
2023/12/30 12:43:18;;;;;;;8.63;1.55;;;9.80;99.90;;;;;;4948267;28;20122;-88
2023/12/30 12:45:44;;;;;;;11.00;2.10;;;9.80;99.90;;;;;;4950974;28;20093;-87
2023/12/30 12:48:10;;;;;;;18.30;2.10;;;9.90;99.90;;;;;;4946564;28;20386;-87
2023/12/30 12:50:36;;;;;;;8.30;1.90;;;9.90;99.90;;;;;;4951605;28;20031;-87
2023/12/30 12:53:02;;;;;;;9.20;1.80;;;10.00;99.90;;;;;;4944153;28;20555;-88